SLCB/CBB METAR and TAF weather

Enter ICAO airport designator
Station Type Date Time Source
SLCB METAR 2021/10/20 07:00 UTC NOAA

SLCB 200700Z 28004KT 9999 FEW033 SCT070 15/08 Q1025


Station Type Date Time Source
SLCB Decoded METAR 2021/10/20 07:00 UTC NOAA

Cochabamba, Bolivia (SLCB) 17-25S 066-11W 2570M
Oct 20, 2021 - 03:00 AM EDT / 2021.10.20 0700 UTC
Wind: from the W (280 degrees) at 5 MPH (4 KT):0
Visibility: greater than 7 mile(s):0
Sky conditions: partly cloudy
Temperature: 59 F (15 C)
Dew Point: 46 F (8 C)
Relative Humidity: 62%
Pressure (altimeter): 30.27 in. Hg (1025 hPa)
ob: SLCB 200700Z 28004KT 9999 FEW033 SCT070 15/08 Q1025
cycle: 7

Station Type Date Time Source
SLCB TAF 2021/10/20 06:25 UTC NOAA

TAF SLCB 200400Z 2006/2106 00000KT 9999 FEW033 BKN070 TX32/2019Z TN13/2011Z
BECMG 2014/2016 32010KT FEW040
TEMPO 2019/2021 03015KT

Example: see airport list